Time;durP1;ratioP1;P1;durP2;ratioP2;P2;SDS_P1;SDS_P2;PMS_P1;PMS_P2;Temp;Humidity;BMP_temperature;BMP_pressure;BME280_temperature;BME280_humidity;BME280_pressure;Samples;Min_cycle;Max_cycle;Signal;HPM_P1;HPM_P2
2021/05/27 00:01:32;;;;;;;26.88;5.55;;;;;;;;;;4909784;29;20047;-56
2021/05/27 00:04:01;;;;;;;14.07;4.40;;;;;;;;;;4905720;29;20047;-56
2021/05/27 00:06:27;;;;;;;12.00;3.67;;;;;;;;;;4908709;29;20055;-57
2021/05/27 00:08:53;;;;;;;17.42;4.07;;;;;;;;;;4907637;29;20059;-58
2021/05/27 00:11:19;;;;;;;14.27;4.30;;;;;;;;;;4908831;29;20048;-56
2021/05/27 00:13:45;;;;;;;15.45;4.25;;;;;;;;;;4906188;29;20059;-56
2021/05/27 00:16:12;;;;;;;16.55;4.38;;;;;;;;;;4910375;29;20115;-56
2021/05/27 00:18:38;;;;;;;18.33;4.28;;;;;;;;;;4904511;29;20127;-59
2021/05/27 00:21:04;;;;;;;12.32;4.07;;;;;;;;;;4910753;29;20055;-58
2021/05/27 00:23:30;;;;;;;13.95;4.60;;;;;;;;;;4923654;29;20052;-57
2021/05/27 00:25:56;;;;;;;16.30;4.32;;;;;;;;;;4927091;29;20052;-57
2021/05/27 00:28:22;;;;;;;17.65;4.20;;;;;;;;;;4923695;29;20051;-59
2021/05/27 00:30:48;;;;;;;12.88;4.03;;;;;;;;;;4908036;29;20051;-58
2021/05/27 00:33:15;;;;;;;16.27;4.20;;;;;;;;;;4910724;29;20052;-54
2021/05/27 00:35:41;;;;;;;17.52;3.97;;;;;;;;;;4907075;29;20044;-55
2021/05/27 00:38:07;;;;;;;14.13;4.68;;;;;;;;;;4910852;29;20046;-59
2021/05/27 00:40:55;;;;;;;12.80;4.55;;;;;;;;;;4907459;29;20087;-56
2021/05/27 00:43:21;;;;;;;12.40;3.72;;;;;;;;;;4925576;29;20135;-54
2021/05/27 00:45:47;;;;;;;12.60;3.88;;;;;;;;;;4906994;29;20036;-58
2021/05/27 00:48:56;;;;;;;16.63;4.57;;;;;;;;;;4908878;29;20043;-55
2021/05/27 00:51:00;;;;;;;19.05;4.38;;;;;;;;;;4905238;29;20044;-54
2021/05/27 00:53:27;;;;;;;17.98;3.80;;;;;;;;;;4908298;29;20040;-58
2021/05/27 00:55:53;;;;;;;16.92;4.72;;;;;;;;;;4906309;29;20055;-58
2021/05/27 00:58:22;;;;;;;20.23;4.00;;;;;;;;;;4909181;29;20111;-57
2021/05/27 01:00:48;;;;;;;21.00;4.30;;;;;;;;;;4905730;29;20067;-59
2021/05/27 01:03:14;;;;;;;15.73;3.78;;;;;;;;;;4909400;29;20051;-60
2021/05/27 01:05:42;;;;;;;17.88;3.75;;;;;;;;;;4906042;29;20044;-58
2021/05/27 01:08:09;;;;;;;16.65;4.88;;;;;;;;;;4908436;29;20032;-57
2021/05/27 01:10:35;;;;;;;12.75;3.83;;;;;;;;;;4905251;29;20083;-60
2021/05/27 01:13:01;;;;;;;15.32;4.10;;;;;;;;;;4925802;29;20056;-59
2021/05/27 01:15:31;;;;;;;15.38;3.63;;;;;;;;;;4905765;29;20043;-57
2021/05/27 01:17:58;;;;;;;11.77;3.25;;;;;;;;;;4924161;29;20059;-56
2021/05/27 01:20:24;;;;;;;15.90;4.20;;;;;;;;;;4906275;29;20052;-56
2021/05/27 01:22:51;;;;;;;14.07;3.95;;;;;;;;;;4908148;29;20044;-58
2021/05/27 01:25:17;;;;;;;17.88;4.35;;;;;;;;;;4907554;29;20044;-58
2021/05/27 01:27:43;;;;;;;16.45;4.22;;;;;;;;;;4904518;29;20059;-57
2021/05/27 01:30:12;;;;;;;15.45;3.33;;;;;;;;;;4907252;29;20127;-59
2021/05/27 01:32:38;;;;;;;13.88;4.03;;;;;;;;;;4906400;29;20044;-59
2021/05/27 01:35:06;;;;;;;16.27;3.72;;;;;;;;;;4908957;29;20151;-59
2021/05/27 01:37:32;;;;;;;16.35;3.83;;;;;;;;;;4920613;29;20068;-58
2021/05/27 01:40:01;;;;;;;18.27;3.95;;;;;;;;;;4908885;29;20047;-58
2021/05/27 01:42:27;;;;;;;10.52;3.72;;;;;;;;;;4913514;29;20123;-59
2021/05/27 01:44:53;;;;;;;12.27;4.07;;;;;;;;;;4911365;29;20056;-57
2021/05/27 01:47:19;;;;;;;13.77;4.60;;;;;;;;;;4907150;29;20084;-59
2021/05/27 01:49:45;;;;;;;13.38;4.18;;;;;;;;;;4911926;29;20084;-56
2021/05/27 01:52:11;;;;;;;11.63;3.50;;;;;;;;;;4908241;29;20595;-59
2021/05/27 01:54:37;;;;;;;13.80;3.53;;;;;;;;;;4927079;29;20060;-59
2021/05/27 01:57:04;;;;;;;12.70;2.95;;;;;;;;;;4908178;29;20052;-59
2021/05/27 01:59:30;;;;;;;10.45;3.28;;;;;;;;;;4910794;29;20047;-56
2021/05/27 02:01:56;;;;;;;16.65;4.00;;;;;;;;;;4924638;29;20047;-58
2021/05/27 02:04:22;;;;;;;15.48;3.85;;;;;;;;;;4913943;29;20088;-55
2021/05/27 02:06:48;;;;;;;14.73;3.92;;;;;;;;;;4907316;29;20044;-55
2021/05/27 02:09:14;;;;;;;14.65;3.33;;;;;;;;;;4906296;29;20130;-59
2021/05/27 02:11:41;;;;;;;14.07;3.85;;;;;;;;;;4911481;29;20164;-57
2021/05/27 02:14:08;;;;;;;12.73;3.42;;;;;;;;;;4908695;29;20044;-59
2021/05/27 02:16:38;;;;;;;9.25;3.53;;;;;;;;;;4913239;29;20088;-59
2021/05/27 02:19:05;;;;;;;11.20;3.90;;;;;;;;;;4906900;29;20051;-59
2021/05/27 02:21:31;;;;;;;9.35;3.47;;;;;;;;;;4911595;29;20032;-57
2021/05/27 02:23:59;;;;;;;11.88;3.72;;;;;;;;;;4924126;29;20044;-58
2021/05/27 02:26:26;;;;;;;12.88;4.20;;;;;;;;;;4910691;29;20051;-60
2021/05/27 02:28:52;;;;;;;11.68;3.67;;;;;;;;;;4907149;29;20055;-60
2021/05/27 02:31:20;;;;;;;16.38;4.00;;;;;;;;;;4909525;29;20111;-60
2021/05/27 02:33:46;;;;;;;16.77;4.60;;;;;;;;;;4907778;29;20044;-60
2021/05/27 02:36:12;;;;;;;17.63;5.00;;;;;;;;;;4910170;29;20048;-59
2021/05/27 02:38:38;;;;;;;14.38;4.85;;;;;;;;;;4908377;29;20044;-58
2021/05/27 02:41:05;;;;;;;16.73;4.32;;;;;;;;;;4927158;29;20044;-59
2021/05/27 02:43:32;;;;;;;21.15;4.85;;;;;;;;;;4909013;29;20055;-58
2021/05/27 02:45:59;;;;;;;18.08;4.35;;;;;;;;;;4925385;29;20132;-57
2021/05/27 02:48:25;;;;;;;18.42;4.38;;;;;;;;;;4925909;29;20055;-59
2021/05/27 02:50:52;;;;;;;17.58;4.00;;;;;;;;;;4920970;29;20036;-58
2021/05/27 02:53:18;;;;;;;14.98;4.25;;;;;;;;;;4910340;29;20059;-60
2021/05/27 02:55:44;;;;;;;18.65;4.45;;;;;;;;;;4922788;29;20056;-57
2021/05/27 02:58:10;;;;;;;12.05;3.80;;;;;;;;;;4928599;29;20096;-59
2021/05/27 03:00:37;;;;;;;14.13;3.90;;;;;;;;;;4906954;29;20129;-59
2021/05/27 03:03:03;;;;;;;18.08;3.60;;;;;;;;;;4910557;29;20176;-58
2021/05/27 03:05:30;;;;;;;20.77;4.15;;;;;;;;;;4922506;29;20079;-59
2021/05/27 03:07:56;;;;;;;14.40;4.10;;;;;;;;;;4909457;29;20047;-58
2021/05/27 03:10:23;;;;;;;14.15;4.43;;;;;;;;;;4907094;29;20043;-54
2021/05/27 03:12:49;;;;;;;17.60;4.43;;;;;;;;;;4927470;29;20080;-56
2021/05/27 03:15:15;;;;;;;16.95;4.03;;;;;;;;;;4907121;29;20131;-58
2021/05/27 03:17:42;;;;;;;14.77;4.30;;;;;;;;;;4927588;29;20051;-58
2021/05/27 03:20:08;;;;;;;15.20;4.90;;;;;;;;;;4905967;29;20051;-58
2021/05/27 03:22:35;;;;;;;15.35;4.28;;;;;;;;;;4925823;29;20044;-59
2021/05/27 03:25:01;;;;;;;13.25;4.03;;;;;;;;;;4907562;28;20036;-57
2021/05/27 03:27:27;;;;;;;13.75;3.78;;;;;;;;;;4905168;29;20047;-59
2021/05/27 03:29:53;;;;;;;12.07;3.65;;;;;;;;;;4924740;29;20032;-57
2021/05/27 03:32:19;;;;;;;15.80;3.88;;;;;;;;;;4905731;29;20043;-58
2021/05/27 03:34:45;;;;;;;14.73;3.88;;;;;;;;;;4909058;29;20066;-57
2021/05/27 03:37:11;;;;;;;12.75;3.83;;;;;;;;;;4923104;29;20051;-58
2021/05/27 03:39:38;;;;;;;16.00;3.78;;;;;;;;;;4909487;29;20051;-55
2021/05/27 03:42:04;;;;;;;13.13;3.90;;;;;;;;;;4918200;29;20048;-58
2021/05/27 03:44:30;;;;;;;17.05;3.92;;;;;;;;;;4890728;29;20048;-56
2021/05/27 03:46:56;;;;;;;15.98;3.90;;;;;;;;;;4912576;29;20063;-57
2021/05/27 03:49:22;;;;;;;11.32;3.53;;;;;;;;;;4929106;29;20047;-58
2021/05/27 03:51:48;;;;;;;24.75;4.45;;;;;;;;;;4923928;29;20139;-58
2021/05/27 03:54:14;;;;;;;10.93;3.35;;;;;;;;;;4927603;29;20059;-57
2021/05/27 03:56:41;;;;;;;13.93;4.18;;;;;;;;;;4905401;29;20051;-60
2021/05/27 04:01:52;;;;;;;13.40;3.47;;;;;;;;;;4895452;29;20040;-59
2021/05/27 04:07:09;;;;;;;13.45;3.38;;;;;;;;;;4904532;29;20118;-58
2021/05/27 04:09:35;;;;;;;13.35;3.50;;;;;;;;;;4908617;29;20055;-59
2021/05/27 04:14:42;;;;;;;16.20;3.55;;;;;;;;;;4888527;29;20044;-59
2021/05/27 04:17:08;;;;;;;12.68;3.53;;;;;;;;;;4907606;29;20055;-58
2021/05/27 04:19:34;;;;;;;10.90;3.40;;;;;;;;;;4905920;29;20095;-57
2021/05/27 04:22:00;;;;;;;12.18;3.42;;;;;;;;;;4926823;29;20063;-58
2021/05/27 04:24:26;;;;;;;13.82;3.47;;;;;;;;;;4904211;29;20043;-58
2021/05/27 04:26:52;;;;;;;8.05;3.20;;;;;;;;;;4927476;29;20048;-59
2021/05/27 04:29:19;;;;;;;11.43;2.95;;;;;;;;;;4905757;29;20106;-59
2021/05/27 04:31:45;;;;;;;12.82;3.42;;;;;;;;;;4909690;29;20040;-59
2021/05/27 04:34:11;;;;;;;12.30;3.20;;;;;;;;;;4923134;29;20048;-58
2021/05/27 04:36:37;;;;;;;13.38;3.47;;;;;;;;;;4924902;29;20043;-57
2021/05/27 04:39:03;;;;;;;15.35;3.08;;;;;;;;;;4906432;29;20039;-59
2021/05/27 04:41:30;;;;;;;14.60;3.80;;;;;;;;;;4926450;29;20048;-59
2021/05/27 04:43:57;;;;;;;14.32;3.40;;;;;;;;;;4905851;29;20044;-59
2021/05/27 04:46:25;;;;;;;15.15;3.25;;;;;;;;;;4909802;29;20059;-59
2021/05/27 04:48:51;;;;;;;14.50;3.47;;;;;;;;;;4905336;29;20052;-59
2021/05/27 04:51:17;;;;;;;12.52;3.15;;;;;;;;;;4908028;29;20048;-59
2021/05/27 04:53:43;;;;;;;14.25;3.40;;;;;;;;;;4922221;29;20055;-57
2021/05/27 04:56:09;;;;;;;13.18;3.97;;;;;;;;;;4909828;29;20040;-57
2021/05/27 04:58:35;;;;;;;16.27;4.00;;;;;;;;;;4909576;29;20130;-59
2021/05/27 05:01:01;;;;;;;11.63;2.90;;;;;;;;;;4904248;29;20047;-59
2021/05/27 05:03:28;;;;;;;15.90;3.58;;;;;;;;;;4908806;29;20134;-59
2021/05/27 05:05:55;;;;;;;17.38;4.97;;;;;;;;;;4906070;29;20135;-58
2021/05/27 05:08:21;;;;;;;13.60;3.92;;;;;;;;;;4908976;29;20088;-59
2021/05/27 05:10:48;;;;;;;16.33;5.97;;;;;;;;;;4905161;29;20050;-59
2021/05/27 05:13:14;;;;;;;13.57;3.25;;;;;;;;;;4927766;29;20067;-58
2021/05/27 05:15:41;;;;;;;14.27;3.42;;;;;;;;;;4906933;29;20040;-57
2021/05/27 05:18:08;;;;;;;10.15;3.90;;;;;;;;;;4909884;29;20124;-58
2021/05/27 05:20:40;;;;;;;12.20;3.55;;;;;;;;;;4908684;29;20139;-56
2021/05/27 05:23:07;;;;;;;14.52;3.42;;;;;;;;;;4910008;29;20051;-57
2021/05/27 05:25:34;;;;;;;15.65;3.83;;;;;;;;;;4925425;29;20125;-56
2021/05/27 05:28:00;;;;;;;16.52;3.40;;;;;;;;;;4908899;29;20047;-58
2021/05/27 05:30:27;;;;;;;14.77;3.58;;;;;;;;;;4908114;29;20061;-59
2021/05/27 05:32:54;;;;;;;19.25;3.47;;;;;;;;;;4904948;29;20054;-59
2021/05/27 05:35:20;;;;;;;10.38;3.28;;;;;;;;;;4903144;29;20031;-58
2021/05/27 05:37:47;;;;;;;14.65;3.20;;;;;;;;;;4903968;29;20072;-58
2021/05/27 05:40:15;;;;;;;16.45;3.50;;;;;;;;;;4908061;29;20059;-58
2021/05/27 05:42:41;;;;;;;13.85;3.33;;;;;;;;;;4900088;29;20044;-58
2021/05/27 05:45:11;;;;;;;15.43;3.22;;;;;;;;;;4925919;28;20072;-58
2021/05/27 05:47:37;;;;;;;9.23;3.40;;;;;;;;;;4924658;29;20039;-57
2021/05/27 05:50:04;;;;;;;14.30;3.78;;;;;;;;;;4910959;29;20055;-58
2021/05/27 05:52:31;;;;;;;14.27;3.80;;;;;;;;;;4917482;29;20059;-58
2021/05/27 05:55:00;;;;;;;16.42;4.18;;;;;;;;;;4926054;29;20131;-59
2021/05/27 05:57:26;;;;;;;10.68;3.72;;;;;;;;;;4900900;29;20067;-59
2021/05/27 05:59:53;;;;;;;9.43;3.10;;;;;;;;;;4905511;29;20063;-58
2021/05/27 06:02:19;;;;;;;13.85;2.92;;;;;;;;;;4902294;29;20052;-59
2021/05/27 06:04:45;;;;;;;17.73;3.55;;;;;;;;;;4904613;29;20071;-60
2021/05/27 06:07:11;;;;;;;15.20;4.10;;;;;;;;;;4924141;29;20056;-59
2021/05/27 06:09:37;;;;;;;12.55;3.70;;;;;;;;;;4908441;29;20062;-56
2021/05/27 06:12:04;;;;;;;16.50;3.75;;;;;;;;;;4906120;29;20055;-59
2021/05/27 06:14:33;;;;;;;13.10;3.22;;;;;;;;;;4903934;29;20147;-56
2021/05/27 06:16:58;;;;;;;18.23;3.20;;;;;;;;;;4917911;29;20065;-59
2021/05/27 06:19:25;;;;;;;24.40;7.57;;;;;;;;;;4925991;29;20051;-60
2021/05/27 06:21:51;;;;;;;18.80;5.68;;;;;;;;;;4925068;29;20040;-58
2021/05/27 06:24:17;;;;;;;12.80;3.10;;;;;;;;;;4904792;29;20052;-53
2021/05/27 06:26:43;;;;;;;13.20;3.45;;;;;;;;;;4894174;29;20048;-58
2021/05/27 06:29:11;;;;;;;10.82;2.97;;;;;;;;;;4904108;29;20058;-59
2021/05/27 06:31:38;;;;;;;15.73;3.35;;;;;;;;;;4910866;29;20110;-58
2021/05/27 06:34:04;;;;;;;14.57;4.07;;;;;;;;;;4911428;29;20052;-59
2021/05/27 06:36:30;;;;;;;13.20;3.58;;;;;;;;;;4892560;29;20054;-58
2021/05/27 06:38:56;;;;;;;16.60;3.22;;;;;;;;;;4897338;29;20326;-55
2021/05/27 06:41:22;;;;;;;13.52;3.40;;;;;;;;;;4923517;29;20067;-56
2021/05/27 06:43:48;;;;;;;10.88;3.20;;;;;;;;;;4911469;29;20054;-57
2021/05/27 06:46:15;;;;;;;11.85;3.35;;;;;;;;;;4927388;29;20059;-57
2021/05/27 06:48:41;;;;;;;7.43;2.50;;;;;;;;;;4907711;29;20103;-58
2021/05/27 06:51:08;;;;;;;12.63;3.10;;;;;;;;;;4927331;29;20044;-57
2021/05/27 06:53:34;;;;;;;9.40;2.92;;;;;;;;;;4926543;29;20055;-56
2021/05/27 06:56:00;;;;;;;15.43;4.18;;;;;;;;;;4912705;29;20044;-59
2021/05/27 06:58:26;;;;;;;12.55;3.13;;;;;;;;;;4910911;29;20040;-58
2021/05/27 07:00:52;;;;;;;9.63;3.17;;;;;;;;;;4921235;29;20043;-57
2021/05/27 07:03:21;;;;;;;11.25;3.13;;;;;;;;;;4919356;29;20059;-55
2021/05/27 07:05:47;;;;;;;8.40;3.38;;;;;;;;;;4918995;29;20158;-58
2021/05/27 07:08:14;;;;;;;13.82;2.92;;;;;;;;;;4910683;29;20028;-56
2021/05/27 07:10:41;;;;;;;17.33;3.50;;;;;;;;;;4905757;29;20064;-59
2021/05/27 07:13:07;;;;;;;12.75;2.97;;;;;;;;;;4910862;29;20047;-57
2021/05/27 07:15:34;;;;;;;12.75;3.17;;;;;;;;;;4906597;29;20051;-58
2021/05/27 07:18:00;;;;;;;11.95;3.05;;;;;;;;;;4928382;29;20052;-53
2021/05/27 07:20:28;;;;;;;12.02;2.80;;;;;;;;;;4918420;29;20056;-57
2021/05/27 07:22:55;;;;;;;12.55;3.15;;;;;;;;;;4907475;28;20055;-58
2021/05/27 07:25:23;;;;;;;9.13;3.20;;;;;;;;;;4911151;29;20068;-58
2021/05/27 07:27:50;;;;;;;9.63;3.03;;;;;;;;;;4926599;29;20047;-58
2021/05/27 07:30:17;;;;;;;13.55;3.05;;;;;;;;;;4906947;29;20043;-57
2021/05/27 07:32:43;;;;;;;10.88;2.90;;;;;;;;;;4927290;29;20051;-57
2021/05/27 07:35:10;;;;;;;10.73;3.17;;;;;;;;;;4923862;29;20052;-59
2021/05/27 07:37:37;;;;;;;15.85;2.78;;;;;;;;;;4910181;29;20036;-58
2021/05/27 07:40:06;;;;;;;13.38;3.42;;;;;;;;;;4908428;29;20048;-57
2021/05/27 07:42:33;;;;;;;14.77;2.90;;;;;;;;;;4907818;29;20055;-54
2021/05/27 07:44:59;;;;;;;12.80;3.50;;;;;;;;;;4922575;29;20048;-57
2021/05/27 07:47:25;;;;;;;12.32;4.90;;;;;;;;;;4941066;28;20047;-55
2021/05/27 07:49:52;;;;;;;13.93;4.50;;;;;;;;;;4944413;29;20047;-58
2021/05/27 07:52:18;;;;;;;20.20;3.90;;;;;;;;;;4947323;28;20131;-58
2021/05/27 07:54:48;;;;;;;11.98;3.10;;;;;;;;;;4928878;29;20039;-57
2021/05/27 07:57:14;;;;;;;12.02;2.88;;;;;;;;;;4925352;29;20034;-56
2021/05/27 07:59:40;;;;;;;13.32;2.50;;;;;;;;;;4927313;29;20039;-58
2021/05/27 08:02:06;;;;;;;12.18;3.10;;;;;;;;;;4925791;29;20051;-58
2021/05/27 08:04:32;;;;;;;13.40;3.38;;;;;;;;;;4959775;28;20102;-57
2021/05/27 08:06:58;;;;;;;7.30;2.65;;;;;;;;;;4925454;29;20050;-55
2021/05/27 08:09:25;;;;;;;12.60;2.80;;;;;;;;;;4945980;28;20057;-58
2021/05/27 08:11:51;;;;;;;14.05;3.50;;;;;;;;;;4941121;28;20044;-56
2021/05/27 08:14:17;;;;;;;10.63;4.03;;;;;;;;;;4960701;28;20044;-59
2021/05/27 08:16:43;;;;;;;10.43;2.90;;;;;;;;;;4941696;28;20039;-58
2021/05/27 08:19:10;;;;;;;14.73;3.25;;;;;;;;;;4945320;29;20051;-57
2021/05/27 08:21:37;;;;;;;12.80;2.92;;;;;;;;;;4929800;29;20044;-57
2021/05/27 08:24:04;;;;;;;13.10;2.78;;;;;;;;;;4942818;28;20089;-59
2021/05/27 08:26:30;;;;;;;10.43;2.20;;;;;;;;;;4947165;29;20043;-59
2021/05/27 08:28:57;;;;;;;14.85;3.15;;;;;;;;;;4925956;29;20099;-58
2021/05/27 08:31:23;;;;;;;13.45;3.58;;;;;;;;;;4945201;29;20059;-58
2021/05/27 08:33:49;;;;;;;11.52;2.58;;;;;;;;;;4937397;29;20036;-58
2021/05/27 08:36:16;;;;;;;13.13;3.08;;;;;;;;;;4909564;29;20043;-58
2021/05/27 08:38:42;;;;;;;10.52;3.20;;;;;;;;;;4930541;28;20040;-58
2021/05/27 08:41:08;;;;;;;8.10;2.30;;;;;;;;;;4918689;29;20074;-57
2021/05/27 08:43:34;;;;;;;8.60;2.95;;;;;;;;;;4941814;28;20121;-57
2021/05/27 08:46:03;;;;;;;14.73;3.30;;;;;;;;;;4925375;29;20056;-55
2021/05/27 08:48:29;;;;;;;10.02;3.03;;;;;;;;;;4922679;29;20060;-57
2021/05/27 08:50:59;;;;;;;13.38;2.90;;;;;;;;;;4909510;29;20044;-58
2021/05/27 08:53:25;;;;;;;9.25;2.60;;;;;;;;;;4923419;29;20071;-58
2021/05/27 08:55:51;;;;;;;8.45;2.53;;;;;;;;;;4926267;29;20032;-58
2021/05/27 08:58:17;;;;;;;11.63;2.88;;;;;;;;;;4907471;29;20038;-56
2021/05/27 09:00:45;;;;;;;9.20;2.95;;;;;;;;;;4924912;29;20052;-58
2021/05/27 09:03:21;;;;;;;11.55;2.50;;;;;;;;;;4909614;29;20051;-56
2021/05/27 09:05:58;;;;;;;7.90;2.67;;;;;;;;;;4903065;29;20043;-57
2021/05/27 09:08:28;;;;;;;8.88;2.63;;;;;;;;;;4908174;29;20039;-57
2021/05/27 09:11:00;;;;;;;22.63;5.00;;;;;;;;;;4892545;29;20050;-58
2021/05/27 09:13:26;;;;;;;18.63;2.95;;;;;;;;;;4887596;29;20093;-57
2021/05/27 09:15:52;;;;;;;12.48;2.70;;;;;;;;;;4893527;29;20045;-58
2021/05/27 09:18:29;;;;;;;11.10;3.03;;;;;;;;;;4878437;29;20084;-59
2021/05/27 09:20:57;;;;;;;9.93;2.40;;;;;;;;;;4889928;29;20139;-59
2021/05/27 09:23:54;;;;;;;12.05;3.17;;;;;;;;;;4879566;29;20034;-57
2021/05/27 09:26:20;;;;;;;9.63;3.05;;;;;;;;;;4862463;29;20125;-58
2021/05/27 09:28:56;;;;;;;14.02;3.40;;;;;;;;;;4872146;29;20089;-59
2021/05/27 09:31:32;;;;;;;8.80;2.65;;;;;;;;;;4864970;29;20047;-59
2021/05/27 09:34:19;;;;;;;12.65;2.90;;;;;;;;;;4899718;29;20099;-59
2021/05/27 09:37:02;;;;;;;9.32;2.60;;;;;;;;;;4916264;29;20135;-58
2021/05/27 09:39:38;;;;;;;11.73;2.88;;;;;;;;;;4908596;29;20051;-58
2021/05/27 09:42:04;;;;;;;16.92;3.38;;;;;;;;;;4904746;29;20054;-59
2021/05/27 09:44:36;;;;;;;11.23;3.47;;;;;;;;;;4907415;29;20059;-59
2021/05/27 09:47:04;;;;;;;16.00;3.05;;;;;;;;;;4895268;29;20048;-60
2021/05/27 09:49:34;;;;;;;12.57;2.60;;;;;;;;;;4920510;29;20051;-59
2021/05/27 09:52:13;;;;;;;12.65;2.47;;;;;;;;;;4915367;29;20044;-59
2021/05/27 09:54:53;;;;;;;11.52;2.97;;;;;;;;;;4909299;29;20036;-59
2021/05/27 09:57:22;;;;;;;10.43;2.78;;;;;;;;;;4922591;29;20048;-58
2021/05/27 09:59:52;;;;;;;8.80;3.03;;;;;;;;;;4909727;29;20024;-55
2021/05/27 10:02:18;;;;;;;16.15;3.45;;;;;;;;;;4905081;29;20091;-55
2021/05/27 10:05:08;;;;;;;17.40;3.63;;;;;;;;;;4903128;29;20106;-59
2021/05/27 10:07:38;;;;;;;12.27;3.17;;;;;;;;;;4901171;29;20076;-57
2021/05/27 10:10:06;;;;;;;10.75;3.20;;;;;;;;;;4894758;29;20056;-57
2021/05/27 10:12:36;;;;;;;8.50;2.80;;;;;;;;;;4919470;29;20040;-59
2021/05/27 10:15:02;;;;;;;19.27;3.70;;;;;;;;;;4891751;29;20041;-55
2021/05/27 10:17:28;;;;;;;15.32;3.47;;;;;;;;;;4899215;29;20051;-57
2021/05/27 10:19:56;;;;;;;13.02;3.17;;;;;;;;;;4911191;29;20040;-58
2021/05/27 10:22:23;;;;;;;19.85;4.40;;;;;;;;;;4907590;29;20063;-59
2021/05/27 10:24:49;;;;;;;16.50;4.03;;;;;;;;;;4927869;29;20032;-60
2021/05/27 10:27:15;;;;;;;16.48;4.22;;;;;;;;;;4924531;29;20156;-58
2021/05/27 10:29:41;;;;;;;15.80;4.18;;;;;;;;;;4925854;29;20060;-57
2021/05/27 10:32:09;;;;;;;15.90;3.28;;;;;;;;;;4924371;29;20043;-58
2021/05/27 10:34:42;;;;;;;14.15;3.78;;;;;;;;;;4909821;29;20040;-59
2021/05/27 10:37:08;;;;;;;13.65;4.38;;;;;;;;;;4908160;29;20044;-59
2021/05/27 10:39:37;;;;;;;13.73;3.90;;;;;;;;;;4909739;29;20063;-58
2021/05/27 10:42:02;;;;;;;;;;;;;;;;;;4912008;29;20052;-58
2021/05/27 10:44:29;;;;;;;16.98;3.00;;;;;;;;;;4906090;29;19938;-58
2021/05/27 10:47:17;;;;;;;13.27;3.13;;;;;;;;;;4909833;29;20051;-57
2021/05/27 10:49:46;;;;;;;11.30;3.70;;;;;;;;;;4903607;29;20044;-60
2021/05/27 10:52:27;;;;;;;14.52;3.90;;;;;;;;;;4907593;29;20056;-58
2021/05/27 10:54:54;;;;;;;14.18;4.38;;;;;;;;;;4904412;29;20084;-58
2021/05/27 10:57:36;;;;;;;19.15;3.80;;;;;;;;;;4912031;29;20045;-59
2021/05/27 11:00:03;;;;;;;13.70;4.10;;;;;;;;;;4907021;29;20044;-58
2021/05/27 11:02:29;;;;;;;16.75;3.58;;;;;;;;;;4926300;29;20052;-59
2021/05/27 11:05:13;;;;;;;10.50;3.13;;;;;;;;;;4907211;29;20040;-59
2021/05/27 11:07:39;;;;;;;15.02;3.38;;;;;;;;;;4910382;29;20072;-59
2021/05/27 11:10:26;;;;;;;11.52;3.45;;;;;;;;;;4919787;29;20114;-59
2021/05/27 11:12:53;;;;;;;;;;;;;;;;;;4928891;29;20047;-55
2021/05/27 11:15:20;;;;;;;9.60;2.95;;;;;;;;;;4910410;29;19946;-59
2021/05/27 11:18:20;;;;;;;9.38;3.13;;;;;;;;;;4927078;29;20051;-59
2021/05/27 11:20:47;;;;;;;9.30;2.38;;;;;;;;;;4918671;29;20044;-59
2021/05/27 11:23:20;;;;;;;15.07;2.80;;;;;;;;;;4911767;29;20044;-57
2021/05/27 11:25:46;;;;;;;14.63;3.20;;;;;;;;;;4905956;29;20046;-58
2021/05/27 11:28:36;;;;;;;15.15;3.30;;;;;;;;;;4928876;29;20036;-56
2021/05/27 11:31:05;;;;;;;20.35;3.17;;;;;;;;;;4917353;29;20032;-59
2021/05/27 11:33:35;;;;;;;19.60;3.15;;;;;;;;;;4909505;29;20067;-55
2021/05/27 11:36:04;;;;;;;10.63;3.15;;;;;;;;;;4900158;29;20036;-58
2021/05/27 11:38:32;;;;;;;12.53;3.17;;;;;;;;;;4910176;29;20107;-56
2021/05/27 11:40:59;;;;;;;15.95;4.45;;;;;;;;;;4901668;29;20287;-57
2021/05/27 11:43:26;;;;;;;14.70;3.17;;;;;;;;;;4907442;29;20051;-56
2021/05/27 11:45:53;;;;;;;13.32;3.67;;;;;;;;;;4896599;29;20048;-57
2021/05/27 11:48:24;;;;;;;12.93;3.38;;;;;;;;;;4925550;29;20054;-57
2021/05/27 11:50:51;;;;;;;10.50;2.92;;;;;;;;;;4922226;29;20391;-57
2021/05/27 11:53:20;;;;;;;13.68;2.65;;;;;;;;;;4926399;29;20497;-58
2021/05/27 11:55:51;;;;;;;10.27;2.80;;;;;;;;;;4906671;29;20055;-55
2021/05/27 11:58:32;;;;;;;9.75;2.47;;;;;;;;;;4925091;29;20047;-56
2021/05/27 12:01:17;;;;;;;10.93;2.75;;;;;;;;;;4912719;29;20040;-58
2021/05/27 12:04:04;;;;;;;10.02;2.67;;;;;;;;;;4910141;29;20232;-58
2021/05/27 12:06:43;;;;;;;14.63;3.80;;;;;;;;;;4923017;29;20048;-57
2021/05/27 12:09:12;;;;;;;10.73;3.25;;;;;;;;;;4901886;29;20121;-58
2021/05/27 12:11:39;;;;;;;16.52;3.10;;;;;;;;;;4905174;29;20103;-56
2021/05/27 12:14:05;;;;;;;9.23;3.00;;;;;;;;;;4909928;29;20051;-58
2021/05/27 12:16:31;;;;;;;13.35;3.65;;;;;;;;;;4910958;29;20077;-56
2021/05/27 12:19:01;;;;;;;13.60;3.15;;;;;;;;;;4896234;29;20039;-55
2021/05/27 12:21:29;;;;;;;14.70;3.72;;;;;;;;;;4889339;29;20052;-58
2021/05/27 12:23:55;;;;;;;11.65;3.03;;;;;;;;;;4899977;29;20035;-58
2021/05/27 12:26:21;;;;;;;11.25;2.85;;;;;;;;;;4924457;29;20062;-59
2021/05/27 12:28:47;;;;;;;11.73;2.80;;;;;;;;;;4904336;29;20048;-58
2021/05/27 12:31:14;;;;;;;13.43;3.10;;;;;;;;;;4924481;29;20098;-59
2021/05/27 12:33:40;;;;;;;10.63;3.50;;;;;;;;;;4917784;29;20036;-58
2021/05/27 12:36:07;;;;;;;11.88;2.70;;;;;;;;;;4920899;29;20052;-59
2021/05/27 12:38:35;;;;;;;12.32;4.57;;;;;;;;;;4899327;29;20032;-58
2021/05/27 12:41:04;;;;;;;11.65;3.80;;;;;;;;;;4908197;29;20048;-59
2021/05/27 12:43:33;;;;;;;10.35;2.80;;;;;;;;;;4904265;29;20046;-56
2021/05/27 12:45:59;;;;;;;10.20;3.25;;;;;;;;;;4908366;29;20047;-59
2021/05/27 12:48:26;;;;;;;13.10;3.10;;;;;;;;;;4905816;29;20040;-58
2021/05/27 12:51:00;;;;;;;9.73;3.22;;;;;;;;;;4925649;29;20038;-53
2021/05/27 12:53:27;;;;;;;6.40;2.33;;;;;;;;;;4905792;29;20048;-59
2021/05/27 12:55:54;;;;;;;8.45;2.85;;;;;;;;;;4926869;29;20052;-59
2021/05/27 12:58:27;;;;;;;12.70;3.40;;;;;;;;;;4923870;29;20062;-59
2021/05/27 13:00:54;;;;;;;11.20;3.00;;;;;;;;;;4908306;29;20108;-58
2021/05/27 13:03:20;;;;;;;13.05;2.95;;;;;;;;;;4910258;29;20043;-58
2021/05/27 13:06:01;;;;;;;13.52;2.90;;;;;;;;;;4947080;29;20051;-58
2021/05/27 13:08:30;;;;;;;7.63;2.65;;;;;;;;;;4922078;29;20091;-57
2021/05/27 13:10:56;;;;;;;;;;;;;;;;;;4909884;29;20058;-56
2021/05/27 13:13:31;;;;;;;14.20;3.25;;;;;;;;;;4904760;29;19937;-59
2021/05/27 13:15:59;;;;;;;8.63;2.38;;;;;;;;;;4926099;29;20039;-58
2021/05/27 13:18:25;;;;;;;16.45;2.17;;;;;;;;;;4923063;29;20139;-58
2021/05/27 13:20:59;;;;;;;6.28;1.92;;;;;;;;;;4908218;29;20054;-59
2021/05/27 13:23:29;;;;;;;6.55;1.90;;;;;;;;;;4910958;29;20035;-59
2021/05/27 13:26:07;;;;;;;10.23;2.00;;;;;;;;;;4905410;29;20044;-59
2021/05/27 13:28:34;;;;;;;4.27;1.40;;;;;;;;;;4908878;29;20054;-58
2021/05/27 13:31:00;;;;;;;8.60;1.30;;;;;;;;;;4906149;29;20305;-59
2021/05/27 13:33:29;;;;;;;7.60;1.30;;;;;;;;;;4908035;29;20045;-57
2021/05/27 13:35:57;;;;;;;;;;;;;;;;;;4905502;29;20043;-58
2021/05/27 13:38:25;;;;;;;10.43;1.63;;;;;;;;;;4909694;29;19927;-53
2021/05/27 13:40:52;;;;;;;6.10;1.30;;;;;;;;;;4908186;29;20055;-58
2021/05/27 13:43:18;;;;;;;5.95;1.50;;;;;;;;;;4928012;29;20047;-55
2021/05/27 13:45:45;;;;;;;6.10;1.42;;;;;;;;;;4915363;29;20043;-58
2021/05/27 13:48:11;;;;;;;4.32;1.20;;;;;;;;;;4912731;29;20056;-58
2021/05/27 13:50:40;;;;;;;11.07;1.60;;;;;;;;;;4907765;29;20068;-59
2021/05/27 13:53:08;;;;;;;11.60;1.90;;;;;;;;;;4927897;29;20050;-58
2021/05/27 13:55:38;;;;;;;7.57;1.30;;;;;;;;;;4924816;29;20048;-57
2021/05/27 13:58:04;;;;;;;13.48;1.85;;;;;;;;;;4909989;29;20040;-57
2021/05/27 14:00:31;;;;;;;6.65;1.40;;;;;;;;;;4907426;29;20043;-57
2021/05/27 14:02:58;;;;;;;9.52;1.42;;;;;;;;;;4911243;29;20044;-58
2021/05/27 14:05:24;;;;;;;7.45;1.58;;;;;;;;;;4925725;29;20052;-59
2021/05/27 14:07:50;;;;;;;6.57;1.33;;;;;;;;;;4928610;29;20095;-58
2021/05/27 14:10:16;;;;;;;7.20;1.20;;;;;;;;;;4897608;29;20048;-58
2021/05/27 14:12:43;;;;;;;2.78;0.80;;;;;;;;;;4902440;29;20059;-58
2021/05/27 14:15:10;;;;;;;8.68;1.20;;;;;;;;;;4895100;29;20044;-59
2021/05/27 14:17:36;;;;;;;6.25;1.27;;;;;;;;;;4906194;29;20039;-58
2021/05/27 14:20:05;;;;;;;5.28;1.23;;;;;;;;;;4925361;29;20064;-58
2021/05/27 14:22:31;;;;;;;7.03;1.17;;;;;;;;;;4906464;29;20044;-59
2021/05/27 14:24:57;;;;;;;3.97;1.20;;;;;;;;;;4910211;29;20043;-57
2021/05/27 14:27:23;;;;;;;7.00;1.10;;;;;;;;;;4899558;29;20055;-57
2021/05/27 14:29:50;;;;;;;6.18;1.20;;;;;;;;;;4911913;29;20079;-55
2021/05/27 14:32:16;;;;;;;4.80;1.40;;;;;;;;;;4892370;29;20047;-55
2021/05/27 14:34:42;;;;;;;7.90;1.10;;;;;;;;;;4910477;29;20044;-59
2021/05/27 14:37:09;;;;;;;7.03;1.02;;;;;;;;;;4926228;29;20080;-56
2021/05/27 14:39:46;;;;;;;7.15;1.40;;;;;;;;;;4913206;29;20048;-58
2021/05/27 14:42:12;;;;;;;7.88;1.58;;;;;;;;;;4908408;29;20048;-57
2021/05/27 14:44:38;;;;;;;6.43;1.23;;;;;;;;;;4910591;29;20109;-58
2021/05/27 14:47:04;;;;;;;8.73;1.55;;;;;;;;;;4922828;29;20058;-57